Time;durP1;ratioP1;P1;durP2;ratioP2;P2;SDS_P1;SDS_P2;PMS_P1;PMS_P2;Temp;Humidity;BMP_temperature;BMP_pressure;BME280_temperature;BME280_humidity;BME280_pressure;Samples;Min_cycle;Max_cycle;Signal;HPM_P1;HPM_P2
2024/01/04 00:02:34;;;;;;;;;;;;;;;15.52;54.47;96685.63;67560;1282;1016714;-68
2024/01/04 00:05:36;;;;;;;;;;;;;;;15.52;54.42;96686.21;67569;1282;1016382;-72
2024/01/04 00:08:39;;;;;;;;;;;;;;;15.54;54.22;96682.84;67530;1282;1016365;-69
2024/01/04 00:11:42;;;;;;;;;;;;;;;15.58;54.29;96687.83;67555;1282;1016511;-71
2024/01/04 00:14:45;;;;;;;;;;;;;;;15.64;54.01;96689.06;67555;1282;1016421;-72
2024/01/04 00:17:48;;;;;;;;;;;;;;;15.67;53.72;96690.85;67549;1282;1016349;-72
2024/01/04 00:20:50;;;;;;;;;;;;;;;15.58;54.10;96685.41;67577;1282;1016352;-71
2024/01/04 00:23:53;;;;;;;;;;;;;;;15.53;54.08;96683.51;67527;1282;1016470;-71
2024/01/04 00:26:56;;;;;;;;;;;;;;;15.57;54.03;96684.63;67564;1282;1016271;-72
2024/01/04 00:29:58;;;;;;;;;;;;;;;15.62;53.93;96689.05;67551;1282;1016749;-64
2024/01/04 00:33:01;;;;;;;;;;;;;;;15.66;53.73;96684.86;67585;1282;1016365;-71
2024/01/04 00:36:04;;;;;;;;;;;;;;;15.62;53.97;96682.51;67546;1282;1016362;-71
2024/01/04 00:39:06;;;;;;;;;;;;;;;15.65;54.01;96686.73;67590;1282;1016520;-71
2024/01/04 00:42:09;;;;;;;;;;;;;;;15.63;54.17;96684.72;67524;1282;1016110;-70
2024/01/04 00:45:12;;;;;;;;;;;;;;;15.79;53.33;96682.12;67561;1282;1016654;-67
2024/01/04 00:48:15;;;;;;;;;;;;;;;15.53;54.15;96687.16;67577;1282;1016443;-71
2024/01/04 00:51:17;;;;;;;;;;;;;;;15.38;54.79;96686.81;67543;1282;1016271;-69
2024/01/04 00:54:20;;;;;;;;;;;;;;;15.37;54.84;96684.65;67536;1283;1018462;-65
2024/01/04 00:57:23;;;;;;;;;;;;;;;15.45;54.85;96682.38;67572;1282;1016467;-71
2024/01/04 01:00:25;;;;;;;;;;;;;;;15.50;54.57;96681.59;67593;1282;1016493;-72
2024/01/04 01:03:28;;;;;;;;;;;;;;;15.52;54.43;96676.71;67553;1282;1016114;-71
2024/01/04 01:06:31;;;;;;;;;;;;;;;15.68;54.16;96676.14;67575;1282;1016727;-71
2024/01/04 01:09:34;;;;;;;;;;;;;;;15.59;54.23;96668.41;67569;1282;1016232;-72
2024/01/04 01:12:36;;;;;;;;;;;;;;;15.55;54.39;96670.41;67528;1283;1016040;-72
2024/01/04 01:15:40;;;;;;;;;;;;;;;15.40;54.76;96661.77;67574;1282;1015945;-72
2024/01/04 01:18:42;;;;;;;;;;;;;;;15.29;55.19;96664.80;67525;1282;1016486;-71
2024/01/04 01:21:45;;;;;;;;;;;;;;;15.35;55.09;96665.68;67554;1282;1016474;-71
2024/01/04 01:24:48;;;;;;;;;;;;;;;15.36;54.76;96666.56;67555;1282;1016112;-71
2024/01/04 01:27:50;;;;;;;;;;;;;;;15.39;54.71;96665.43;67543;1282;1016939;-69
2024/01/04 01:30:53;;;;;;;;;;;;;;;15.31;54.84;96667.39;67572;1282;1016215;-67
2024/01/04 01:33:56;;;;;;;;;;;;;;;15.33;54.93;96665.06;67589;1282;1016444;-72
2024/01/04 01:36:59;;;;;;;;;;;;;;;15.36;54.67;96664.12;67547;1282;1016429;-67
2024/01/04 01:40:02;;;;;;;;;;;;;;;15.35;54.61;96664.62;67601;1283;1017080;-69
2024/01/04 01:43:05;;;;;;;;;;;;;;;15.43;54.55;96661.30;67592;1282;1016207;-72
2024/01/04 01:46:08;;;;;;;;;;;;;;;15.52;54.16;96666.70;67552;1282;1016426;-72
2024/01/04 01:49:11;;;;;;;;;;;;;;;15.72;53.49;96665.09;67537;1282;1016522;-70
2024/01/04 01:52:13;;;;;;;;;;;;;;;15.56;53.81;96665.70;67571;1282;1016461;-71
2024/01/04 01:55:16;;;;;;;;;;;;;;;15.49;54.11;96662.90;67566;1282;1016509;-67
2024/01/04 01:58:21;;;;;;;;;;;;;;;15.42;54.17;96657.10;67559;1282;1017013;-72
2024/01/04 02:01:24;;;;;;;;;;;;;;;15.40;54.12;96654.54;67557;1282;1016354;-69
2024/01/04 02:04:26;;;;;;;;;;;;;;;15.50;53.76;96656.91;67522;1282;1016465;-72
2024/01/04 02:07:29;;;;;;;;;;;;;;;15.46;53.94;96656.48;67573;1282;1015811;-71
2024/01/04 02:10:32;;;;;;;;;;;;;;;15.40;54.09;96653.12;67573;1282;1016366;-71
2024/01/04 02:13:35;;;;;;;;;;;;;;;15.33;54.38;96648.95;67508;1282;1016398;-72
2024/01/04 02:16:37;;;;;;;;;;;;;;;15.27;54.64;96652.17;67585;1282;1016450;-73
2024/01/04 02:19:40;;;;;;;;;;;;;;;15.30;54.45;96647.66;67579;1282;1016297;-71
2024/01/04 02:22:43;;;;;;;;;;;;;;;15.31;54.48;96646.98;67519;1282;1016298;-72
2024/01/04 02:25:46;;;;;;;;;;;;;;;15.35;54.20;96643.00;67569;1282;1016786;-71
2024/01/04 02:28:49;;;;;;;;;;;;;;;15.39;54.32;96644.48;67539;1282;1018181;-71
2024/01/04 02:31:52;;;;;;;;;;;;;;;15.31;54.37;96645.20;67573;1282;1016212;-71
2024/01/04 02:34:54;;;;;;;;;;;;;;;15.26;54.58;96639.73;67551;1282;1016437;-69
2024/01/04 02:37:57;;;;;;;;;;;;;;;15.25;54.44;96640.55;67547;1282;1015888;-71
2024/01/04 02:41:00;;;;;;;;;;;;;;;15.16;54.67;96643.66;67575;1282;1016257;-72
2024/01/04 02:44:02;;;;;;;;;;;;;;;15.13;54.70;96644.27;67566;1282;1016322;-71
2024/01/04 02:47:05;;;;;;;;;;;;;;;15.09;54.74;96639.75;67527;1282;1016345;-72
2024/01/04 02:50:08;;;;;;;;;;;;;;;15.16;54.67;96636.46;67568;1282;1016146;-69
2024/01/04 02:53:10;;;;;;;;;;;;;;;15.23;54.32;96630.23;67544;1282;1015865;-72
2024/01/04 02:56:13;;;;;;;;;;;;;;;15.26;54.14;96627.26;67522;1282;1016728;-70
2024/01/04 02:59:16;;;;;;;;;;;;;;;15.20;54.21;96628.41;67540;1282;1016277;-70
2024/01/04 03:02:19;;;;;;;;;;;;;;;15.25;53.84;96620.04;67476;1282;1016470;-71
2024/01/04 03:05:21;;;;;;;;;;;;;;;15.29;53.86;96624.00;67531;1282;1018498;-66
2024/01/04 03:08:24;;;;;;;;;;;;;;;15.23;53.76;96627.57;67549;1282;1016162;-71
2024/01/04 03:11:27;;;;;;;;;;;;;;;15.33;53.80;96629.64;67554;1282;1016858;-72
2024/01/04 03:14:30;;;;;;;;;;;;;;;15.44;53.35;96625.84;67519;1282;1016873;-71
2024/01/04 03:17:33;;;;;;;;;;;;;;;15.43;53.55;96625.17;67545;1282;1016359;-71
2024/01/04 03:20:35;;;;;;;;;;;;;;;15.58;52.96;96626.79;67518;1282;1016187;-72
2024/01/04 03:23:38;;;;;;;;;;;;;;;15.43;53.20;96628.14;67555;1282;1016207;-71
2024/01/04 03:26:41;;;;;;;;;;;;;;;15.41;53.50;96627.17;67550;1282;1016690;-70
2024/01/04 03:29:43;;;;;;;;;;;;;;;15.42;53.41;96626.01;67528;1282;1016498;-60
2024/01/04 03:32:46;;;;;;;;;;;;;;;15.38;53.55;96625.90;67561;1282;1016509;-69
2024/01/04 03:35:49;;;;;;;;;;;;;;;15.39;53.58;96623.12;67584;1282;1016799;-72
2024/01/04 03:38:52;;;;;;;;;;;;;;;15.38;53.14;96623.73;67559;1282;1016450;-70
2024/01/04 03:41:55;;;;;;;;;;;;;;;15.33;53.38;96622.45;67537;1282;1016336;-69
2024/01/04 03:44:58;;;;;;;;;;;;;;;15.33;53.44;96623.27;67536;1282;1016217;-72
2024/01/04 03:48:00;;;;;;;;;;;;;;;15.36;53.29;96622.23;67555;1282;1016338;-70
2024/01/04 03:51:03;;;;;;;;;;;;;;;15.38;53.19;96621.28;67564;1282;1018566;-70
2024/01/04 03:54:06;;;;;;;;;;;;;;;15.45;52.92;96618.54;67523;1282;1016425;-71
2024/01/04 03:57:08;;;;;;;;;;;;;;;15.35;53.10;96611.43;67568;1282;1016444;-71
2024/01/04 04:00:11;;;;;;;;;;;;;;;15.30;53.34;96611.17;67547;1282;1016125;-69
2024/01/04 04:03:14;;;;;;;;;;;;;;;15.35;53.48;96614.40;67528;1282;1016428;-71
2024/01/04 04:06:17;;;;;;;;;;;;;;;15.37;53.58;96606.87;67569;1282;1016196;-69
2024/01/04 04:09:19;;;;;;;;;;;;;;;15.33;53.73;96607.27;67537;1282;1017626;-72
2024/01/04 04:12:22;;;;;;;;;;;;;;;15.26;54.28;96606.16;67497;1282;1016215;-67
2024/01/04 04:15:25;;;;;;;;;;;;;;;15.22;54.66;96607.61;67542;1282;1016431;-71
2024/01/04 04:18:27;;;;;;;;;;;;;;;15.22;54.68;96610.44;67555;1282;1016386;-71
2024/01/04 04:21:30;;;;;;;;;;;;;;;15.09;55.77;96608.56;67512;1282;1016389;-71
2024/01/04 04:24:33;;;;;;;;;;;;;;;15.06;56.41;96607.68;67558;1282;1016395;-70
2024/01/04 04:27:35;;;;;;;;;;;;;;;15.17;56.66;96608.90;67536;1282;1016493;-63
2024/01/04 04:30:38;;;;;;;;;;;;;;;15.06;57.49;96617.89;67529;1282;1016242;-70
2024/01/04 04:33:41;;;;;;;;;;;;;;;14.99;58.02;96617.17;67563;1282;1016414;-72
2024/01/04 04:36:43;;;;;;;;;;;;;;;15.03;58.10;96616.33;67540;1282;1016164;-71
2024/01/04 04:39:46;;;;;;;;;;;;;;;15.00;58.42;96616.85;67519;1282;1016379;-72
2024/01/04 04:42:49;;;;;;;;;;;;;;;14.97;58.41;96617.67;67575;1282;1016145;-72
2024/01/04 04:45:51;;;;;;;;;;;;;;;15.02;58.62;96620.48;67572;1282;1016436;-72
2024/01/04 04:48:55;;;;;;;;;;;;;;;15.13;58.51;96621.23;67496;1282;1016260;-72
2024/01/04 04:51:58;;;;;;;;;;;;;;;15.10;58.52;96625.09;67556;1280;1016133;-71
2024/01/04 04:55:00;;;;;;;;;;;;;;;14.94;59.21;96624.80;67518;1282;1016397;-68
2024/01/04 04:58:03;;;;;;;;;;;;;;;15.08;58.81;96618.90;67561;1282;1016479;-71
2024/01/04 05:01:06;;;;;;;;;;;;;;;15.22;58.23;96619.96;67500;1282;1018098;-70
2024/01/04 05:04:09;;;;;;;;;;;;;;;15.30;57.82;96616.79;67525;1282;1016705;-72
2024/01/04 05:07:11;;;;;;;;;;;;;;;15.32;57.72;96617.59;67571;1282;1016360;-72
2024/01/04 05:10:14;;;;;;;;;;;;;;;15.23;58.31;96622.69;67535;1282;1016326;-71
2024/01/04 05:13:17;;;;;;;;;;;;;;;15.13;58.52;96622.75;67486;1282;1016445;-72
2024/01/04 05:16:20;;;;;;;;;;;;;;;15.04;59.01;96625.40;67580;1282;1015766;-72
2024/01/04 05:19:23;;;;;;;;;;;;;;;14.99;58.98;96624.70;67524;1282;1016058;-65
2024/01/04 05:22:25;;;;;;;;;;;;;;;14.87;59.63;96635.52;67527;1282;1016407;-73
2024/01/04 05:25:28;;;;;;;;;;;;;;;14.82;59.54;96634.94;67527;1282;1016008;-72
2024/01/04 05:28:31;;;;;;;;;;;;;;;14.78;59.65;96641.72;67530;1282;1016482;-72
2024/01/04 05:31:34;;;;;;;;;;;;;;;14.74;59.20;96645.83;67555;1282;1016270;-73
2024/01/04 05:34:36;;;;;;;;;;;;;;;14.58;59.58;96646.73;67543;1282;1016687;-72
2024/01/04 05:37:39;;;;;;;;;;;;;;;14.57;59.45;96645.72;67539;1282;1016492;-72
2024/01/04 05:40:42;;;;;;;;;;;;;;;14.66;59.79;96640.78;67589;1282;1016303;-72
2024/01/04 05:43:44;;;;;;;;;;;;;;;14.62;60.29;96643.79;67567;1282;1016317;-72
2024/01/04 05:46:48;;;;;;;;;;;;;;;14.61;60.07;96645.02;67526;1282;1016335;-73
2024/01/04 05:49:51;;;;;;;;;;;;;;;14.61;59.43;96646.89;67499;1282;1016528;-72
2024/01/04 05:52:54;;;;;;;;;;;;;;;14.62;59.11;96647.13;67575;1282;1016485;-70
2024/01/04 05:55:57;;;;;;;;;;;;;;;14.64;58.92;96641.67;67548;1282;1016193;-72
2024/01/04 05:58:59;;;;;;;;;;;;;;;14.57;59.08;96650.17;67532;1282;1016458;-69
2024/01/04 06:02:02;;;;;;;;;;;;;;;14.56;58.88;96644.50;67554;1282;1016425;-72
2024/01/04 06:05:05;;;;;;;;;;;;;;;14.57;59.10;96647.85;67554;1282;1016457;-71
2024/01/04 06:08:07;;;;;;;;;;;;;;;14.58;59.12;96651.42;67511;1282;1016435;-72
2024/01/04 06:11:10;;;;;;;;;;;;;;;14.42;60.26;96658.35;67561;1282;1016465;-67
2024/01/04 06:14:13;;;;;;;;;;;;;;;14.54;59.84;96658.78;67579;1282;1016432;-72
2024/01/04 06:17:15;;;;;;;;;;;;;;;14.57;59.96;96663.69;67526;1282;1016171;-72
2024/01/04 06:20:18;;;;;;;;;;;;;;;14.46;60.58;96662.33;67567;1282;1016127;-70
2024/01/04 06:23:21;;;;;;;;;;;;;;;14.38;61.24;96667.95;67560;1282;1016363;-72
2024/01/04 06:26:23;;;;;;;;;;;;;;;14.49;60.67;96667.77;67505;1282;1016208;-72
2024/01/04 06:29:27;;;;;;;;;;;;;;;14.52;60.86;96670.23;67477;1282;1016376;-64
2024/01/04 06:32:30;;;;;;;;;;;;;;;14.73;59.99;96677.02;67512;1282;1016474;-71
2024/01/04 06:35:33;;;;;;;;;;;;;;;14.75;60.06;96677.20;67554;1282;1016362;-72
2024/01/04 06:38:35;;;;;;;;;;;;;;;14.72;60.41;96673.71;67518;1282;1016384;-71
2024/01/04 06:41:39;;;;;;;;;;;;;;;14.82;60.05;96682.16;67522;1282;1016443;-65
2024/01/04 06:44:42;;;;;;;;;;;;;;;14.88;59.96;96684.91;67554;1282;1016432;-69
2024/01/04 06:47:44;;;;;;;;;;;;;;;14.85;60.17;96690.30;67522;1282;1016427;-67
2024/01/04 06:50:47;;;;;;;;;;;;;;;14.82;60.16;96695.27;67574;1282;1016140;-71
2024/01/04 06:53:50;;;;;;;;;;;;;;;14.91;59.75;96694.02;67568;1282;1016010;-72
2024/01/04 06:56:52;;;;;;;;;;;;;;;14.95;59.78;96694.48;67549;1282;1016238;-72
2024/01/04 06:59:55;;;;;;;;;;;;;;;14.97;59.42;96695.35;67576;1282;1016105;-70
2024/01/04 07:02:58;;;;;;;;;;;;;;;14.84;59.93;96694.95;67568;1282;1016154;-73
2024/01/04 07:06:03;;;;;;;;;;;;;;;14.76;60.35;96692.36;67580;1282;1016263;-66
2024/01/04 07:09:06;;;;;;;;;;;;;;;14.78;60.46;96697.83;67581;1282;1016425;-71
2024/01/04 07:12:09;;;;;;;;;;;;;;;14.74;60.60;96698.96;67557;1282;1016478;-70
2024/01/04 07:15:12;;;;;;;;;;;;;;;14.71;60.83;96698.05;67558;1282;1016672;-71
2024/01/04 07:18:14;;;;;;;;;;;;;;;14.79;60.43;96696.75;67518;1282;1016356;-68
2024/01/04 07:21:17;;;;;;;;;;;;;;;14.92;59.92;96701.39;67565;1282;1016479;-71
2024/01/04 07:24:20;;;;;;;;;;;;;;;14.69;60.73;96699.14;67518;1282;1016339;-69
2024/01/04 07:27:23;;;;;;;;;;;;;;;14.64;61.41;96705.33;67544;1282;1016467;-73
2024/01/04 07:30:26;;;;;;;;;;;;;;;14.71;60.96;96704.95;67550;1282;1016449;-72
2024/01/04 07:33:28;;;;;;;;;;;;;;;14.67;61.23;96708.37;67544;1282;1016419;-72
2024/01/04 07:36:31;;;;;;;;;;;;;;;14.68;61.33;96712.60;67600;1282;1019614;-73
2024/01/04 07:39:34;;;;;;;;;;;;;;;14.71;61.06;96708.90;67542;1282;1016618;-72
2024/01/04 07:42:36;;;;;;;;;;;;;;;14.81;60.87;96714.38;67624;1282;1016427;-71
2024/01/04 07:45:39;;;;;;;;;;;;;;;14.88;60.71;96711.92;67529;1282;1016403;-71
2024/01/04 07:48:42;;;;;;;;;;;;;;;14.96;60.56;96712.23;67571;1282;1016367;-72
2024/01/04 07:51:45;;;;;;;;;;;;;;;14.85;61.18;96715.31;67555;1282;1016268;-67
2024/01/04 07:54:47;;;;;;;;;;;;;;;14.83;61.23;96713.44;67507;1282;1016487;-72
2024/01/04 07:57:50;;;;;;;;;;;;;;;14.77;61.33;96708.25;67564;1282;1016402;-72
2024/01/04 08:00:53;;;;;;;;;;;;;;;14.71;61.86;96717.90;67546;1282;1016559;-72
2024/01/04 08:03:55;;;;;;;;;;;;;;;14.61;62.38;96717.23;67528;1282;1016390;-69
2024/01/04 08:06:58;;;;;;;;;;;;;;;14.63;62.37;96718.27;67573;1282;1016352;-70
2024/01/04 08:10:01;;;;;;;;;;;;;;;14.84;61.39;96721.05;67581;1282;1016327;-71
2024/01/04 08:13:03;;;;;;;;;;;;;;;14.74;61.87;96724.76;67519;1282;1016901;-72
2024/01/04 08:16:06;;;;;;;;;;;;;;;14.76;61.82;96728.10;67604;1282;1016404;-68
2024/01/04 08:19:09;;;;;;;;;;;;;;;14.72;62.20;96725.40;67567;1282;1016537;-72
2024/01/04 08:22:11;;;;;;;;;;;;;;;14.64;62.66;96732.06;67508;1282;1016435;-72
2024/01/04 08:25:14;;;;;;;;;;;;;;;14.75;62.64;96728.34;67585;1282;1016941;-70
2024/01/04 08:28:18;;;;;;;;;;;;;;;14.90;62.02;96728.14;67572;1282;1016365;-72
2024/01/04 08:31:21;;;;;;;;;;;;;;;14.82;62.33;96733.73;67564;1282;1018898;-69
2024/01/04 08:34:23;;;;;;;;;;;;;;;14.83;62.07;96735.93;67535;1282;1016374;-72
2024/01/04 08:37:26;;;;;;;;;;;;;;;14.82;62.09;96736.11;67571;1282;1016213;-72
2024/01/04 08:40:30;;;;;;;;;;;;;;;14.85;61.99;96734.28;67526;1282;1016364;-70
2024/01/04 08:43:32;;;;;;;;;;;;;;;14.88;61.82;96743.80;67585;1282;1015929;-70
2024/01/04 08:46:37;;;;;;;;;;;;;;;14.84;61.72;96750.90;67532;1282;1016226;-71
2024/01/04 08:49:40;;;;;;;;;;;;;;;14.68;62.95;96756.02;67554;1282;1016472;-65
2024/01/04 08:52:43;;;;;;;;;;;;;;;14.97;62.32;96744.61;67529;1282;1016390;-72
2024/01/04 08:55:46;;;;;;;;;;;;;;;15.12;61.51;96750.36;67537;1282;1016386;-70
2024/01/04 08:58:48;;;;;;;;;;;;;;;15.10;61.31;96748.94;67594;1282;1016528;-69
2024/01/04 09:01:51;;;;;;;;;;;;;;;15.12;60.85;96755.80;67561;1282;1015996;-71
2024/01/04 09:04:54;;;;;;;;;;;;;;;15.06;61.09;96762.98;67533;1282;1016856;-69
2024/01/04 09:07:57;;;;;;;;;;;;;;;15.01;60.99;96773.50;67585;1282;1018725;-71
2024/01/04 09:10:59;;;;;;;;;;;;;;;15.00;61.07;96770.46;67553;1282;1016502;-71
2024/01/04 09:14:05;;;;;;;;;;;;;;;14.99;61.37;96770.25;67569;1282;1016354;-72
2024/01/04 09:17:08;;;;;;;;;;;;;;;15.19;61.47;96766.42;67576;1282;1016159;-69
2024/01/04 09:20:13;;;;;;;;;;;;;;;15.24;60.55;96773.92;67593;1282;1016390;-71
2024/01/04 09:23:16;;;;;;;;;;;;;;;15.32;60.23;96771.44;65477;1282;5323051;-72
2024/01/04 09:26:19;;;;;;;;;;;;;;;15.42;60.20;96765.57;67602;1282;1016608;-71
2024/01/04 09:29:22;;;;;;;;;;;;;;;15.44;60.04;96763.56;67536;1282;1016391;-72
2024/01/04 09:32:25;;;;;;;;;;;;;;;15.45;60.13;96776.67;67588;1282;1016842;-72
2024/01/04 09:35:36;;;;;;;;;;;;;;;15.44;60.15;96774.91;67518;1282;1016401;-70
2024/01/04 09:38:39;;;;;;;;;;;;;;;15.53;59.89;96775.77;67539;1282;1016251;-72
2024/01/04 09:41:44;;;;;;;;;;;;;;;15.60;59.89;96776.81;67589;1282;1015868;-72
2024/01/04 09:44:47;;;;;;;;;;;;;;;15.68;59.25;96775.52;67581;1282;1016443;-71
2024/01/04 09:47:53;;;;;;;;;;;;;;;15.75;59.06;96779.98;67513;1282;1016501;-71
2024/01/04 09:50:58;;;;;;;;;;;;;;;15.79;59.08;96778.00;67558;1282;1016400;-72
2024/01/04 09:54:01;;;;;;;;;;;;;;;15.83;59.24;96774.91;67551;1282;1015888;-72
2024/01/04 09:57:04;;;;;;;;;;;;;;;15.82;58.71;96774.08;67557;1282;1016514;-70
2024/01/04 10:00:08;;;;;;;;;;;;;;;15.95;58.63;96763.88;67521;1282;1016902;-69
2024/01/04 10:03:12;;;;;;;;;;;;;;;15.99;58.41;96765.95;67569;1282;1016443;-72
2024/01/04 10:06:15;;;;;;;;;;;;;;;16.28;57.62;96761.80;67511;1282;1016844;-71
2024/01/04 10:09:18;;;;;;;;;;;;;;;16.37;57.35;96762.15;67556;1282;1016497;-67
2024/01/04 10:12:21;;;;;;;;;;;;;;;16.44;56.53;96770.88;67557;1282;1016437;-70
2024/01/04 10:15:24;;;;;;;;;;;;;;;16.41;56.72;96770.31;67558;1282;1016363;-71
2024/01/04 10:18:29;;;;;;;;;;;;;;;16.58;56.56;96772.05;67580;1282;1016323;-67
2024/01/04 10:21:33;;;;;;;;;;;;;;;16.57;56.50;96772.98;67537;1282;1016157;-71
2024/01/04 10:24:37;;;;;;;;;;;;;;;16.42;56.03;96771.75;67600;1282;1016297;-69
2024/01/04 10:27:40;;;;;;;;;;;;;;;16.46;55.67;96777.17;67582;1282;1017263;-71
2024/01/04 10:30:43;;;;;;;;;;;;;;;16.44;55.51;96783.18;67533;1282;1015928;-72
2024/01/04 10:33:46;;;;;;;;;;;;;;;16.36;55.44;96779.89;67601;1282;1016479;-69
2024/01/04 10:36:49;;;;;;;;;;;;;;;16.15;55.40;96787.24;67557;1282;1016379;-71
2024/01/04 10:39:52;;;;;;;;;;;;;;;16.10;55.94;96785.70;67564;1282;1016218;-71
2024/01/04 10:42:54;;;;;;;;;;;;;;;16.21;55.25;96784.92;67531;1282;1016460;-71
2024/01/04 10:45:57;;;;;;;;;;;;;;;15.94;56.63;96783.52;67559;1282;1016432;-66
2024/01/04 10:49:00;;;;;;;;;;;;;;;15.80;56.78;96790.51;67577;1282;1016444;-71
2024/01/04 10:52:03;;;;;;;;;;;;;;;15.56;57.46;96784.97;67565;1282;1016096;-71
2024/01/04 10:55:06;;;;;;;;;;;;;;;15.58;57.78;96780.01;67530;1282;1015950;-71
2024/01/04 10:58:08;;;;;;;;;;;;;;;15.53;58.22;96776.54;67565;1282;1016447;-64
2024/01/04 11:01:11;;;;;;;;;;;;;;;15.59;58.56;96773.40;67530;1282;1016377;-70
2024/01/04 11:04:14;;;;;;;;;;;;;;;15.58;57.71;96769.11;67556;1282;1016661;-72
2024/01/04 11:07:16;;;;;;;;;;;;;;;15.60;57.28;96776.55;67563;1282;1015792;-72
2024/01/04 11:10:19;;;;;;;;;;;;;;;15.65;57.40;96767.01;67527;1282;1015953;-72
2024/01/04 11:13:22;;;;;;;;;;;;;;;15.65;57.37;96763.83;67591;1282;1016371;-70
2024/01/04 11:16:25;;;;;;;;;;;;;;;15.68;57.58;96769.02;67583;1282;1016886;-72
2024/01/04 11:19:27;;;;;;;;;;;;;;;15.70;57.76;96771.00;67540;1282;1016268;-67
2024/01/04 11:22:30;;;;;;;;;;;;;;;15.74;57.47;96775.91;67579;1282;1016636;-71
2024/01/04 11:25:33;;;;;;;;;;;;;;;15.62;57.93;96773.04;67605;1282;1015728;-72
2024/01/04 11:28:35;;;;;;;;;;;;;;;15.53;58.52;96762.73;67548;1282;1016917;-72
2024/01/04 11:31:38;;;;;;;;;;;;;;;15.58;58.70;96770.30;67615;1282;1016386;-67
2024/01/04 11:34:41;;;;;;;;;;;;;;;15.57;58.64;96773.54;67592;1282;1016127;-72
2024/01/04 11:37:45;;;;;;;;;;;;;;;15.33;59.35;96772.80;67602;1282;1016208;-71
2024/01/04 11:40:48;;;;;;;;;;;;;;;15.26;59.34;96770.72;67520;1282;1016243;-66
2024/01/04 11:43:52;;;;;;;;;;;;;;;15.26;59.88;96767.77;67600;1282;1016456;-70
2024/01/04 11:46:55;;;;;;;;;;;;;;;15.42;59.77;96766.86;67592;1282;1016156;-71
2024/01/04 11:49:59;;;;;;;;;;;;;;;15.51;59.38;96775.52;67535;1282;1016399;-67
2024/01/04 11:53:02;;;;;;;;;;;;;;;15.43;58.98;96780.63;67538;1282;1016453;-72
2024/01/04 11:56:05;;;;;;;;;;;;;;;15.26;59.32;96775.50;67602;1282;1016282;-72
2024/01/04 11:59:07;;;;;;;;;;;;;;;15.16;60.02;96780.11;67571;1282;1016038;-71
2024/01/04 12:02:10;;;;;;;;;;;;;;;15.06;60.37;96786.19;67525;1282;1016397;-72
2024/01/04 12:05:13;;;;;;;;;;;;;;;15.02;60.70;96782.24;67601;1282;1016473;-72
2024/01/04 12:08:15;;;;;;;;;;;;;;;14.99;60.77;96786.21;67526;1282;1018566;-71
2024/01/04 12:11:20;;;;;;;;;;;;;;;15.06;61.06;96785.63;67545;1282;1016038;-67
2024/01/04 12:14:23;;;;;;;;;;;;;;;14.89;61.48;96791.41;67556;1282;1016447;-72
2024/01/04 12:17:26;;;;;;;;;;;;;;;14.72;61.99;96800.13;67551;1282;1017105;-72
2024/01/04 12:20:29;;;;;;;;;;;;;;;14.81;62.30;96798.16;67594;1282;1016491;-69
2024/01/04 12:23:31;;;;;;;;;;;;;;;14.84;62.05;96799.50;67587;1282;1016412;-72
2024/01/04 12:26:34;;;;;;;;;;;;;;;14.87;61.61;96801.14;67543;1282;1016304;-71
2024/01/04 12:29:37;;;;;;;;;;;;;;;14.88;61.33;96805.80;67590;1282;1016199;-72
2024/01/04 12:32:40;;;;;;;;;;;;;;;14.92;61.10;96804.59;67566;1282;1016291;-72
2024/01/04 12:35:42;;;;;;;;;;;;;;;14.93;60.82;96806.04;67537;1282;1016278;-72
2024/01/04 12:38:45;;;;;;;;;;;;;;;14.91;61.08;96806.00;67575;1282;1016216;-69
2024/01/04 12:41:48;;;;;;;;;;;;;;;14.91;60.86;96809.60;67581;1282;1016297;-72
2024/01/04 12:44:52;;;;;;;;;;;;;;;14.67;60.60;96813.86;67541;1282;1016410;-70
2024/01/04 12:47:54;;;;;;;;;;;;;;;14.62;61.25;96809.14;67552;1282;1016079;-69
2024/01/04 12:50:59;;;;;;;;;;;;;;;14.43;61.17;96830.09;67545;1282;1018418;-70
2024/01/04 12:54:01;;;;;;;;;;;;;;;14.39;61.21;96814.28;67579;1282;1016322;-67
2024/01/04 12:57:04;;;;;;;;;;;;;;;14.43;61.18;96820.11;67558;1282;1015970;-69
2024/01/04 13:00:07;;;;;;;;;;;;;;;14.50;60.83;96825.20;67562;1282;1016479;-69
2024/01/04 13:03:09;;;;;;;;;;;;;;;14.44;60.20;96840.85;67594;1282;1016866;-72
2024/01/04 13:06:13;;;;;;;;;;;;;;;14.46;59.52;96836.65;67612;1282;1016249;-67
2024/01/04 13:09:17;;;;;;;;;;;;;;;14.52;59.03;96844.10;67569;1282;1016332;-72
2024/01/04 13:12:21;;;;;;;;;;;;;;;14.50;59.35;96843.44;67560;1282;1016411;-71
2024/01/04 13:15:23;;;;;;;;;;;;;;;14.75;58.93;96834.83;67576;1282;1016801;-70
2024/01/04 13:18:27;;;;;;;;;;;;;;;14.58;58.83;96838.16;67610;1282;1016933;-69
2024/01/04 13:21:30;;;;;;;;;;;;;;;14.59;58.69;96837.40;67591;1282;1016366;-72
2024/01/04 13:24:33;;;;;;;;;;;;;;;14.70;58.31;96842.63;67519;1282;1016453;-72
2024/01/04 13:27:36;;;;;;;;;;;;;;;14.72;58.29;96835.47;67569;1282;1016232;-69
2024/01/04 13:30:39;;;;;;;;;;;;;;;14.79;57.90;96838.64;67548;1282;1016460;-70
2024/01/04 13:33:42;;;;;;;;;;;;;;;14.89;57.72;96841.59;67576;1282;1016469;-72
2024/01/04 13:36:44;;;;;;;;;;;;;;;14.85;57.20;96849.17;67549;1282;1016441;-72
2024/01/04 13:39:47;;;;;;;;;;;;;;;14.88;57.30;96857.02;67544;1282;1016827;-72
2024/01/04 13:42:50;;;;;;;;;;;;;;;15.02;56.36;96859.60;67598;1282;1016437;-70
2024/01/04 13:45:53;;;;;;;;;;;;;;;15.10;55.38;96850.40;67574;1282;1016900;-72
2024/01/04 13:48:56;;;;;;;;;;;;;;;15.03;55.23;96853.89;67587;1282;1016071;-71
2024/01/04 13:51:59;;;;;;;;;;;;;;;14.95;55.52;96859.77;67541;1282;1016643;-67
2024/01/04 13:55:02;;;;;;;;;;;;;;;14.98;55.38;96857.84;67578;1282;1016191;-70
2024/01/04 13:58:05;;;;;;;;;;;;;;;14.90;55.37;96863.13;67549;1282;1016385;-71
2024/01/04 14:01:07;;;;;;;;;;;;;;;14.66;55.88;96869.02;67545;1282;1016445;-72
2024/01/04 14:04:12;;;;;;;;;;;;;;;14.75;56.19;96871.20;67602;1282;1016408;-71
2024/01/04 14:07:15;;;;;;;;;;;;;;;14.82;55.88;96871.39;67540;1282;1016250;-72
2024/01/04 14:10:18;;;;;;;;;;;;;;;14.78;55.77;96879.73;67607;1282;1016439;-70
2024/01/04 14:13:21;;;;;;;;;;;;;;;14.79;55.75;96875.75;67587;1282;1016462;-72
2024/01/04 14:16:24;;;;;;;;;;;;;;;14.74;55.71;96875.86;67590;1282;1019036;-71
2024/01/04 14:19:27;;;;;;;;;;;;;;;14.62;55.83;96880.01;67595;1282;1016002;-71
2024/01/04 14:22:30;;;;;;;;;;;;;;;14.75;55.71;96877.04;67599;1282;1018906;-65
2024/01/04 14:25:33;;;;;;;;;;;;;;;14.74;55.32;96873.73;67571;1282;1016340;-72
2024/01/04 14:28:37;;;;;;;;;;;;;;;14.72;55.35;96878.91;67578;1282;1016231;-72
2024/01/04 14:31:41;;;;;;;;;;;;;;;14.70;55.35;96877.09;67592;1282;1016483;-72
2024/01/04 14:34:43;;;;;;;;;;;;;;;14.67;55.44;96885.11;67542;1282;1016167;-72
2024/01/04 14:37:46;;;;;;;;;;;;;;;14.73;55.65;96885.16;67600;1282;1016278;-71
2024/01/04 14:40:49;;;;;;;;;;;;;;;14.83;55.42;96880.95;67577;1282;1016455;-68
2024/01/04 14:43:51;;;;;;;;;;;;;;;14.94;55.11;96883.27;67533;1282;1016476;-71
2024/01/04 14:46:55;;;;;;;;;;;;;;;15.00;54.87;96878.51;67577;1282;1016253;-69
2024/01/04 14:50:00;;;;;;;;;;;;;;;14.97;54.97;96872.57;67553;1282;1016432;-68
2024/01/04 14:53:03;;;;;;;;;;;;;;;14.97;54.95;96868.32;67601;1282;1016163;-68
2024/01/04 14:56:06;;;;;;;;;;;;;;;14.94;55.07;96874.40;67559;1282;1016512;-70
2024/01/04 14:59:10;;;;;;;;;;;;;;;14.85;55.26;96876.36;67550;1282;1016527;-68
2024/01/04 15:02:12;;;;;;;;;;;;;;;14.89;55.15;96878.96;67602;1282;1017563;-69
2024/01/04 15:05:15;;;;;;;;;;;;;;;14.96;55.18;96873.51;67588;1282;1016263;-71
2024/01/04 15:08:18;;;;;;;;;;;;;;;14.78;55.73;96874.00;67569;1282;1016472;-67
2024/01/04 15:11:21;;;;;;;;;;;;;;;14.59;56.47;96872.92;67597;1282;1016076;-69
2024/01/04 15:14:23;;;;;;;;;;;;;;;14.47;56.91;96873.87;67559;1282;1016456;-70
2024/01/04 15:17:26;;;;;;;;;;;;;;;14.67;56.51;96875.21;67574;1282;1016379;-71
2024/01/04 15:20:29;;;;;;;;;;;;;;;14.48;57.67;96875.13;67597;1282;1016336;-70
2024/01/04 15:23:31;;;;;;;;;;;;;;;14.51;57.48;96874.63;67588;1282;1016148;-68
2024/01/04 15:26:34;;;;;;;;;;;;;;;14.36;58.00;96881.13;67563;1282;1016518;-70
2024/01/04 15:29:37;;;;;;;;;;;;;;;14.29;58.40;96879.86;67590;1282;1016233;-71